ADDS METAR Data INFO
IDs: Format: Raw Decoded Include TAF

Data at: 1133 UTC 29 May 2017

KEAN 291115Z AUTO 20007KT 10SM CLR 08/05 A3022 RMK AO2 T00830046
KEAN 291055Z AUTO 20007KT 10SM CLR 09/05 A3021 RMK AO2 T00850046
KEAN 291035Z AUTO 20007KT 10SM CLR 08/05 A3021 RMK AO2 T00820047
KEAN 291015Z AUTO 20006KT 10SM CLR 09/05 A3022 RMK AO2 T00860047
KEAN 290955Z AUTO 20007KT 10SM CLR 08/05 A3022 RMK AO2 T00820049
KEAN 290935Z AUTO 20007KT 10SM CLR 09/05 A3022 RMK AO2 T00850048
KEAN 290915Z AUTO 20008KT 10SM SCT110 09/05 A3022 RMK AO2 T00860050
KEAN 290855Z AUTO 20009KT 10SM BKN110 09/05 A3022 RMK AO2 T00900053
KEAN 290835Z AUTO 21007KT 10SM SCT090 BKN120 09/06 A3022 RMK AO2 T00930057
KEAN 290815Z AUTO 21003KT 10SM SCT110 10/06 A3023 RMK AO2 T00960057
KEAN 290755Z AUTO 00000KT 10SM BKN110 11/06 A3023 RMK AO2 T01060059
KEAN 290735Z AUTO 21003KT 10SM OVC110 12/06 A3023 RMK AO2 T01200058
KEAN 290715Z AUTO 00000KT 10SM OVC100 12/06 A3024 RMK AO2 T01170059
KEAN 290655Z AUTO 00000KT 10SM OVC100 12/06 A3024 RMK AO2 T01150062 402210065
KEAN 290635Z AUTO 21003KT 10SM OVC110 12/06 A3024 RMK AO2 T01150056
KEAN 290615Z AUTO 20004KT 10SM BKN120 12/05 A3023 RMK AO2 T01170053
KEAN 290555Z AUTO 19004KT 10SM SCT120 12/05 A3023 RMK AO2 T01160052 10190 20114
KEAN 290535Z AUTO 23004KT 10SM SCT120 12/05 A3023 RMK AO2 T01190053
KEAN 290515Z AUTO 28004KT 10SM SCT100 BKN120 13/05 A3023 RMK AO2 T01290050
KEAN 290455Z AUTO 32005KT 10SM SCT042 SCT060 OVC110 13/06 A3022 RMK AO2 T01310055
KEAN 290435Z AUTO 31006G19KT 10SM -RA SCT042 BKN080 OVC100 15/04 A3023 RMK AO2 T01450043
KEAN 290415Z AUTO 29010G18KT 10SM BKN080 OVC090 13/04 A3023 RMK AO2 T01320042
KEAN 290355Z AUTO 30018G26KT 10SM SCT075 BKN100 OVC110 14/04 A3025 RMK AO2 T01380044
KEAN 290335Z AUTO 32015G23KT 10SM SCT075 OVC110 14/05 A3025 RMK AO2 LTG DSNT S T01410045
KEAN 290315Z AUTO 32012G16KT 10SM OVC110 14/06 A3025 RMK AO2 LTG DSNT SW T01390055
KEAN 290255Z AUTO 33010G19KT 10SM BKN110 14/05 A3024 RMK AO2 T01410051
KEAN 290235Z AUTO 34009G17KT 10SM CLR 15/04 A3023 RMK AO2 T01450042
KEAN 290215Z AUTO 33011G17KT 10SM VCTS CLR 15/04 A3021 RMK AO2 LTG DSNT NW T01540037
KEAN 290155Z AUTO 33013G22KT 10SM CLR 17/05 A3019 RMK AO2 T01650052
KEAN 290135Z AUTO 32008KT 300V360 10SM CLR 18/05 A3018 RMK AO2 T01750052
KEAN 290115Z AUTO 33007KT 10SM SCT120 17/05 A3018 RMK AO2 LTG DSNT S AND NW T01710054
KEAN 290055Z AUTO 35010KT 10SM SCT120 19/05 A3018 RMK AO2 T01880046
KEAN 290035Z AUTO 34011G16KT 10SM CLR 19/06 A3018 RMK AO2 T01890055
KEAN 290015Z AUTO 30004KT 10SM CLR 19/06 A3018 RMK AO2 T01860064
KEAN 282355Z AUTO 30006KT 10SM CLR 18/07 A3018 RMK AO2 LTG DSNT SW T01820071 10221 20139
KEAN 282335Z AUTO 31006KT 10SM CLR 18/07 A3019 RMK AO2 T01790067
KEAN 282315Z AUTO 32004KT 10SM VCTS BKN090 17/07 A3019 RMK AO2 T01740068
KEAN 282255Z AUTO 34006KT 10SM SCT070 BKN090 OVC100 17/06 A3019 RMK AO2 T01690061
KEAN 282235Z AUTO 33010G15KT 10SM SCT035 BKN075 OVC100 16/06 A3021 RMK AO2 LTG DSNT N T01620062
KEAN 282215Z AUTO 34012G22KT 10SM -RA SCT036 BKN060 OVC100 17/08 A3022 RMK AO2 LTG DSNT N AND SE T01700076
KEAN 282155Z AUTO 35007KT 7SM -RA BKN060 BKN070 OVC080 14/06 A3023 RMK AO2 LTG DSNT SE T01410056
KEAN 282135Z AUTO 32012G18KT 10SM VCTS SCT050 SCT060 OVC070 16/06 A3022 RMK AO2 T01550055
KEAN 282115Z AUTO 31018G25KT 10SM BKN070 BKN080 18/03 A3020 RMK AO2 T01840025
KEAN 282055Z AUTO 25005KT 10SM SCT080 SCT090 22/03 A3018 RMK AO2 LTG DSNT NW T02200033
KEAN 282035Z AUTO 22003KT 10SM SCT110 22/03 A3018 RMK AO2 T02160028
KEAN 282015Z AUTO 24008G19KT 10SM SCT090 SCT110 20/04 A3019 RMK AO2 T02000039
KEAN 281955Z AUTO 26011G16KT 230V290 10SM SCT075 SCT090 BKN110 21/03 A3020 RMK AO2 T02050025
KEAN 281935Z AUTO 33011G16KT 300V360 10SM SCT075 BKN090 BKN120 20/02 A3020 RMK AO2 T02010023
KEAN 281915Z AUTO 30010G15KT 10SM SCT075 SCT100 BKN120 20/03 A3021 RMK AO2 T02010031
KEAN 281855Z AUTO 28008G15KT 10SM SCT075 SCT095 BKN110 21/02 A3021 RMK AO2 T02110024
KEAN 281835Z AUTO 31010G19KT 290V350 10SM BKN110 20/03 A3022 RMK AO2 LTG DSNT N T01950030
KEAN 281815Z AUTO 33010G19KT 300V360 10SM SCT110 21/03 A3022 RMK AO2 T02050034
KEAN 281755Z AUTO 33013G17KT 300V360 10SM CLR 20/04 A3022 RMK AO2 T02040042 10204 20070
KEAN 281735Z AUTO 34013G18KT 10SM BKN110 20/04 A3022 RMK AO2 T02040038
KEAN 281715Z AUTO 32013G18KT 300V030 10SM BKN095 19/04 A3023 RMK AO2 T01940035
KEAN 281655Z AUTO 34012G16KT 300V360 10SM SCT095 19/04 A3023 RMK AO2 T01900035
KEAN 281635Z AUTO 32014G20KT 10SM SCT110 19/04 A3023 RMK AO2 T01880036
KEAN 281615Z AUTO 34012G16KT 300V360 10SM SCT110 19/05 A3023 RMK AO2 T01880048
KEAN 281555Z AUTO 35008G18KT 10SM CLR 19/04 A3023 RMK AO2 T01860039
KEAN 281535Z AUTO 34009G17KT 290V360 10SM CLR 18/05 A3023 RMK AO2 T01800046
KEAN 281515Z AUTO 32006KT 10SM CLR 18/03 A3023 RMK AO2 T01800033
KEAN 281455Z AUTO 27006KT 10SM CLR 17/03 A3023 RMK AO2 T01730032
KEAN 281435Z AUTO 27004KT 10SM CLR 17/03 A3022 RMK AO2 T01670032
KEAN 281415Z AUTO 22007KT 190V260 10SM CLR 16/04 A3022 RMK AO2 T01560038
KEAN 281355Z AUTO 21005KT 10SM CLR 15/04 A3022 RMK AO2 T01450042
KEAN 281335Z AUTO 22005KT 10SM CLR 13/04 A3022 RMK AO2 T01280043
KEAN 281315Z AUTO 21006KT 10SM CLR 12/04 A3022 RMK AO2 T01150037
KEAN 281255Z AUTO 21006KT 10SM CLR 10/04 A3022 RMK AO2 T01030036
KEAN 281235Z AUTO 21006KT 10SM CLR 09/03 A3021 RMK AO2 T00920028
KEAN 281215Z AUTO 21006KT 10SM CLR 08/03 A3021 RMK AO2 T00800025
KEAN 281155Z AUTO 10SM CLR 07/02 A3021 RMK AO2 70001 T00690023 10079 20065
KEAN 281135Z AUTO 20008KT 10SM CLR 07/02 A3020 RMK AO2 T00650023
KEAN 281115Z AUTO 10SM CLR 07/02 A3020 RMK AO2 T00710022
KEAN 281055Z AUTO 20005KT 10SM CLR 07/03 A3020 RMK AO2 T00680026
KEAN 281035Z AUTO 20005KT 10SM CLR 07/03 A3019 RMK AO2 T00680029
KEAN 281015Z AUTO 20006KT 10SM CLR 07/03 A3019 RMK AO2 T00710029
KEAN 280955Z AUTO 20006KT 10SM CLR 07/03 A3020 RMK AO2 T00680029
KEAN 280935Z AUTO 20006KT 10SM SCT085 07/03 A3020 RMK AO2 T00700028
KEAN 280915Z AUTO 20007KT 10SM BKN085 08/03 A3020 RMK AO2 T00750028
KEAN 280855Z AUTO 20006KT 10SM SCT085 07/03 A3020 RMK AO2 T00700027
KEAN 280835Z AUTO 20006KT 10SM SCT085 07/03 A3019 RMK AO2 T00710025
KEAN 280815Z AUTO 20006KT 10SM CLR 07/03 A3019 RMK AO2 T00700026
KEAN 280755Z AUTO 20006KT 10SM CLR 07/03 A3019 RMK AO2 T00710025
KEAN 280735Z AUTO 21005KT 10SM CLR 07/03 A3020 RMK AO2 T00730026
KEAN 280715Z AUTO 20007KT 10SM CLR 07/03 A3019 RMK AO2 T00740028
KEAN 280655Z AUTO 20007KT 10SM SCT090 08/03 A3020 RMK AO2 T00760030 401810071
KEAN 280635Z AUTO 20007KT 10SM SCT090 08/03 A3020 RMK AO2 T00750030
KEAN 280615Z AUTO 20007KT 10SM SCT090 08/03 A3020 RMK AO2 T00770031
KEAN 280555Z AUTO 20007KT 10SM CLR 08/04 A3020 RMK AO2 T00750035 10176 20075
KEAN 280535Z AUTO 20007KT 10SM CLR 08/04 A3020 RMK AO2 T00800036
KEAN 280515Z AUTO 20007KT 10SM CLR 08/04 A3020 RMK AO2 T00800038
KEAN 280455Z AUTO 20007KT 10SM CLR 08/04 A3020 RMK AO2 T00780036
KEAN 280435Z AUTO 22005KT 10SM CLR 09/04 A3020 RMK AO2 T00890037
KEAN 280415Z AUTO 00000KT 10SM CLR 10/03 A3020 RMK AO2 T00960032
KEAN 280355Z AUTO 00000KT 10SM SCT120 10/03 A3019 RMK AO2 T01020029
KEAN 280335Z AUTO 00000KT 10SM SCT120 11/03 A3019 RMK AO2 T01070027
KEAN 280315Z AUTO 00000KT 10SM CLR 11/03 A3018 RMK AO2 T01100029
KEAN 280255Z AUTO 00000KT 10SM CLR 11/03 A3018 RMK AO2 T01110031
KEAN 280235Z AUTO 10SM CLR 13/03 A3017 RMK AO2 T01260025
KEAN 280215Z AUTO 33006KT 10SM CLR 14/02 A3016 RMK AO2 T01370017
KEAN 280155Z AUTO 33009G15KT 10SM CLR 15/02 A3016 RMK AO2 T01480018
KEAN 280135Z AUTO 32009KT 10SM CLR 16/01 A3016 RMK AO2 T01570012
KEAN 280115Z AUTO 32009G14KT 10SM CLR 17/00 A3015 RMK AO2 T01650000
KEAN 280055Z AUTO 32009G14KT 10SM SCT100 15/00 A3015 RMK AO2 T01521001
KEAN 280035Z AUTO 32011G18KT 10SM CLR 17/00 A3015 RMK AO2 T01700000
KEAN 280015Z AUTO 34010G19KT 10SM CLR 18/00 A3014 RMK AO2 T01751002
KEAN 272355Z AUTO 33012G17KT 10SM CLR 18/00 A3014 RMK AO2 T01760001 10181 20119
KEAN 272335Z AUTO 32009G17KT 10SM SCT070 18/01 A3014 RMK AO2 T01770005


Page loaded:  11:33 UTC  |   04:33 AM Pacific  |   05:33 AM Mountain  |   06:33 AM Central  |   07:33 AM Eastern

 

ADVISORIES

FORECASTS

FORECASTS

OBSERVATIONS

USER TOOLS

ABOUT US